sensor_id;sensor_type;location;lat;lon;timestamp;temperature;humidity
7388;DHT22;3735;50.136;11.062;2023-09-19T00:00:20;14.20;99.90
7388;DHT22;3735;50.136;11.062;2023-09-19T00:02:52;14.10;99.90
7388;DHT22;3735;50.136;11.062;2023-09-19T00:05:23;14.10;99.90
7388;DHT22;3735;50.136;11.062;2023-09-19T00:07:53;14.00;99.90
7388;DHT22;3735;50.136;11.062;2023-09-19T00:10:20;13.90;99.90
7388;DHT22;3735;50.136;11.062;2023-09-19T00:13:01;13.90;99.90
7388;DHT22;3735;50.136;11.062;2023-09-19T00:15:41;13.80;99.90
7388;DHT22;3735;50.136;11.062;2023-09-19T00:18:14;13.80;99.90
7388;DHT22;3735;50.136;11.062;2023-09-19T00:20:41;13.80;99.90
7388;DHT22;3735;50.136;11.062;2023-09-19T00:23:07;13.70;99.90
7388;DHT22;3735;50.136;11.062;2023-09-19T00:25:36;13.60;99.90
7388;DHT22;3735;50.136;11.062;2023-09-19T00:28:04;13.60;99.90
7388;DHT22;3735;50.136;11.062;2023-09-19T00:30:31;13.50;99.90
7388;DHT22;3735;50.136;11.062;2023-09-19T00:32:58;13.50;99.90
7388;DHT22;3735;50.136;11.062;2023-09-19T00:35:24;13.50;99.90
7388;DHT22;3735;50.136;11.062;2023-09-19T00:37:50;13.50;99.90
7388;DHT22;3735;50.136;11.062;2023-09-19T00:40:16;13.40;99.90
7388;DHT22;3735;50.136;11.062;2023-09-19T00:42:44;13.40;99.90
7388;DHT22;3735;50.136;11.062;2023-09-19T00:45:12;13.40;99.90
7388;DHT22;3735;50.136;11.062;2023-09-19T00:47:42;13.30;99.90
7388;DHT22;3735;50.136;11.062;2023-09-19T00:50:11;13.30;99.90
7388;DHT22;3735;50.136;11.062;2023-09-19T00:52:42;13.30;99.90
7388;DHT22;3735;50.136;11.062;2023-09-19T00:55:10;13.40;99.90
7388;DHT22;3735;50.136;11.062;2023-09-19T00:57:38;13.40;99.90
7388;DHT22;3735;50.136;11.062;2023-09-19T01:00:08;13.40;99.90
7388;DHT22;3735;50.136;11.062;2023-09-19T01:02:41;13.40;99.90
7388;DHT22;3735;50.136;11.062;2023-09-19T01:05:11;13.40;99.90
7388;DHT22;3735;50.136;11.062;2023-09-19T01:07:41;13.40;99.90
7388;DHT22;3735;50.136;11.062;2023-09-19T01:10:12;13.50;99.90
7388;DHT22;3735;50.136;11.062;2023-09-19T01:12:52;13.50;99.90
7388;DHT22;3735;50.136;11.062;2023-09-19T01:18:43;13.40;99.90
7388;DHT22;3735;50.136;11.062;2023-09-19T01:22:10;13.50;99.90
7388;DHT22;3735;50.136;11.062;2023-09-19T01:24:42;13.60;99.90
7388;DHT22;3735;50.136;11.062;2023-09-19T01:30:14;13.70;99.90
7388;DHT22;3735;50.136;11.062;2023-09-19T01:32:50;13.70;99.90
7388;DHT22;3735;50.136;11.062;2023-09-19T01:35:18;13.80;99.90
7388;DHT22;3735;50.136;11.062;2023-09-19T01:37:44;13.80;99.90
7388;DHT22;3735;50.136;11.062;2023-09-19T01:40:13;13.80;99.90
7388;DHT22;3735;50.136;11.062;2023-09-19T01:48:42;13.70;99.90
7388;DHT22;3735;50.136;11.062;2023-09-19T01:51:14;13.70;99.90
7388;DHT22;3735;50.136;11.062;2023-09-19T01:54:03;13.80;99.90
7388;DHT22;3735;50.136;11.062;2023-09-19T01:56:56;13.90;99.90
7388;DHT22;3735;50.136;11.062;2023-09-19T01:59:34;13.90;99.90
7388;DHT22;3735;50.136;11.062;2023-09-19T02:02:04;14.00;99.90
7388;DHT22;3735;50.136;11.062;2023-09-19T02:04:33;14.00;99.90
7388;DHT22;3735;50.136;11.062;2023-09-19T02:07:00;14.20;99.90
7388;DHT22;3735;50.136;11.062;2023-09-19T02:09:26;14.40;99.90
7388;DHT22;3735;50.136;11.062;2023-09-19T02:11:52;14.50;99.90
7388;DHT22;3735;50.136;11.062;2023-09-19T02:14:18;14.50;99.90
7388;DHT22;3735;50.136;11.062;2023-09-19T02:16:45;14.60;99.90
7388;DHT22;3735;50.136;11.062;2023-09-19T02:19:11;14.70;99.90
7388;DHT22;3735;50.136;11.062;2023-09-19T02:21:37;14.80;99.90
7388;DHT22;3735;50.136;11.062;2023-09-19T02:24:06;14.90;99.90
7388;DHT22;3735;50.136;11.062;2023-09-19T02:26:33;14.90;99.90
7388;DHT22;3735;50.136;11.062;2023-09-19T02:29:01;15.00;99.90
7388;DHT22;3735;50.136;11.062;2023-09-19T02:31:30;15.10;99.90
7388;DHT22;3735;50.136;11.062;2023-09-19T02:33:56;15.20;99.90
7388;DHT22;3735;50.136;11.062;2023-09-19T02:36:22;15.30;99.90
7388;DHT22;3735;50.136;11.062;2023-09-19T02:38:49;15.50;99.90
7388;DHT22;3735;50.136;11.062;2023-09-19T02:41:15;15.60;99.90
7388;DHT22;3735;50.136;11.062;2023-09-19T02:43:41;15.70;99.90
7388;DHT22;3735;50.136;11.062;2023-09-19T02:46:08;15.90;99.90
7388;DHT22;3735;50.136;11.062;2023-09-19T02:48:34;15.90;99.90
7388;DHT22;3735;50.136;11.062;2023-09-19T02:51:01;15.80;99.90
7388;DHT22;3735;50.136;11.062;2023-09-19T02:53:28;15.70;99.90
7388;DHT22;3735;50.136;11.062;2023-09-19T02:55:56;15.70;99.90
7388;DHT22;3735;50.136;11.062;2023-09-19T02:58:22;15.70;99.90
7388;DHT22;3735;50.136;11.062;2023-09-19T03:00:49;15.70;99.90
7388;DHT22;3735;50.136;11.062;2023-09-19T03:03:17;15.70;99.90
7388;DHT22;3735;50.136;11.062;2023-09-19T03:05:43;15.70;99.90
7388;DHT22;3735;50.136;11.062;2023-09-19T03:08:13;15.70;99.90
7388;DHT22;3735;50.136;11.062;2023-09-19T03:10:42;15.70;99.90
7388;DHT22;3735;50.136;11.062;2023-09-19T03:13:08;15.60;99.90
7388;DHT22;3735;50.136;11.062;2023-09-19T03:15:35;15.60;99.90
7388;DHT22;3735;50.136;11.062;2023-09-19T03:18:04;15.50;99.90
7388;DHT22;3735;50.136;11.062;2023-09-19T03:20:31;15.50;99.90
7388;DHT22;3735;50.136;11.062;2023-09-19T03:22:57;15.50;99.90
7388;DHT22;3735;50.136;11.062;2023-09-19T03:25:23;15.50;99.90
7388;DHT22;3735;50.136;11.062;2023-09-19T03:27:49;15.50;99.90
7388;DHT22;3735;50.136;11.062;2023-09-19T03:30:15;15.40;99.90
7388;DHT22;3735;50.136;11.062;2023-09-19T03:32:48;15.30;99.90
7388;DHT22;3735;50.136;11.062;2023-09-19T03:35:15;15.30;99.90
7388;DHT22;3735;50.136;11.062;2023-09-19T03:37:42;15.20;99.90
7388;DHT22;3735;50.136;11.062;2023-09-19T03:40:09;15.20;99.90
7388;DHT22;3735;50.136;11.062;2023-09-19T03:42:40;15.30;99.90
7388;DHT22;3735;50.136;11.062;2023-09-19T03:45:08;15.30;99.90
7388;DHT22;3735;50.136;11.062;2023-09-19T03:47:38;15.30;99.90
7388;DHT22;3735;50.136;11.062;2023-09-19T03:50:05;15.30;99.90
7388;DHT22;3735;50.136;11.062;2023-09-19T03:52:33;15.30;99.90
7388;DHT22;3735;50.136;11.062;2023-09-19T03:54:59;15.40;99.90
7388;DHT22;3735;50.136;11.062;2023-09-19T03:57:26;15.40;99.90
7388;DHT22;3735;50.136;11.062;2023-09-19T03:59:52;15.50;99.90
7388;DHT22;3735;50.136;11.062;2023-09-19T04:02:19;15.60;99.90
7388;DHT22;3735;50.136;11.062;2023-09-19T04:04:49;15.70;99.90
7388;DHT22;3735;50.136;11.062;2023-09-19T04:07:19;15.70;99.90
7388;DHT22;3735;50.136;11.062;2023-09-19T04:09:47;15.80;99.90
7388;DHT22;3735;50.136;11.062;2023-09-19T04:12:14;15.80;99.90
7388;DHT22;3735;50.136;11.062;2023-09-19T04:14:42;15.80;99.90
7388;DHT22;3735;50.136;11.062;2023-09-19T04:17:09;15.70;99.90
7388;DHT22;3735;50.136;11.062;2023-09-19T04:19:35;15.70;99.90
7388;DHT22;3735;50.136;11.062;2023-09-19T04:22:01;15.70;99.90
7388;DHT22;3735;50.136;11.062;2023-09-19T04:24:28;15.70;99.90
7388;DHT22;3735;50.136;11.062;2023-09-19T04:26:54;15.70;99.90
7388;DHT22;3735;50.136;11.062;2023-09-19T04:29:20;15.70;99.90
7388;DHT22;3735;50.136;11.062;2023-09-19T04:31:46;15.70;99.90
7388;DHT22;3735;50.136;11.062;2023-09-19T04:34:12;15.70;99.90
7388;DHT22;3735;50.136;11.062;2023-09-19T04:36:41;15.70;99.90
7388;DHT22;3735;50.136;11.062;2023-09-19T04:39:07;15.70;99.90
7388;DHT22;3735;50.136;11.062;2023-09-19T04:41:33;15.80;99.90
7388;DHT22;3735;50.136;11.062;2023-09-19T04:43:59;15.80;99.90
7388;DHT22;3735;50.136;11.062;2023-09-19T04:46:25;15.90;99.90
7388;DHT22;3735;50.136;11.062;2023-09-19T04:48:51;15.90;99.90
7388;DHT22;3735;50.136;11.062;2023-09-19T04:51:17;16.00;99.90
7388;DHT22;3735;50.136;11.062;2023-09-19T04:53:44;16.00;99.90
7388;DHT22;3735;50.136;11.062;2023-09-19T04:56:09;16.10;99.90
7388;DHT22;3735;50.136;11.062;2023-09-19T04:58:35;16.10;99.90
7388;DHT22;3735;50.136;11.062;2023-09-19T05:01:01;16.20;99.90
7388;DHT22;3735;50.136;11.062;2023-09-19T05:03:27;16.20;99.90
7388;DHT22;3735;50.136;11.062;2023-09-19T05:05:53;16.20;99.90
7388;DHT22;3735;50.136;11.062;2023-09-19T05:08:19;16.30;99.90
7388;DHT22;3735;50.136;11.062;2023-09-19T05:10:45;16.30;99.90
7388;DHT22;3735;50.136;11.062;2023-09-19T05:13:10;16.30;99.90
7388;DHT22;3735;50.136;11.062;2023-09-19T05:15:37;16.30;99.90
7388;DHT22;3735;50.136;11.062;2023-09-19T05:18:03;16.30;99.90
7388;DHT22;3735;50.136;11.062;2023-09-19T05:20:29;16.40;99.90
7388;DHT22;3735;50.136;11.062;2023-09-19T05:23:00;16.40;99.90
7388;DHT22;3735;50.136;11.062;2023-09-19T05:25:33;16.40;99.90
7388;DHT22;3735;50.136;11.062;2023-09-19T05:28:04;16.40;99.90
7388;DHT22;3735;50.136;11.062;2023-09-19T05:30:31;16.30;99.90
7388;DHT22;3735;50.136;11.062;2023-09-19T05:32:58;16.30;99.90
7388;DHT22;3735;50.136;11.062;2023-09-19T05:35:24;16.30;99.90
7388;DHT22;3735;50.136;11.062;2023-09-19T05:37:52;16.40;99.90
7388;DHT22;3735;50.136;11.062;2023-09-19T05:40:20;16.40;99.90
7388;DHT22;3735;50.136;11.062;2023-09-19T05:42:46;16.40;99.90
7388;DHT22;3735;50.136;11.062;2023-09-19T05:45:13;16.40;99.90
7388;DHT22;3735;50.136;11.062;2023-09-19T05:47:43;16.30;99.90
7388;DHT22;3735;50.136;11.062;2023-09-19T05:50:11;16.20;99.90
7388;DHT22;3735;50.136;11.062;2023-09-19T05:52:38;16.20;99.90
7388;DHT22;3735;50.136;11.062;2023-09-19T05:55:05;16.30;99.90
7388;DHT22;3735;50.136;11.062;2023-09-19T05:57:35;16.90;99.90
7388;DHT22;3735;50.136;11.062;2023-09-19T06:00:01;17.80;99.90
7388;DHT22;3735;50.136;11.062;2023-09-19T06:02:26;18.40;99.90
7388;DHT22;3735;50.136;11.062;2023-09-19T06:04:54;18.60;99.90
7388;DHT22;3735;50.136;11.062;2023-09-19T06:07:21;18.70;99.90
7388;DHT22;3735;50.136;11.062;2023-09-19T06:09:51;19.40;99.90
7388;DHT22;3735;50.136;11.062;2023-09-19T06:12:19;20.20;99.90
7388;DHT22;3735;50.136;11.062;2023-09-19T06:14:45;20.90;99.90
7388;DHT22;3735;50.136;11.062;2023-09-19T06:17:11;21.30;99.90
7388;DHT22;3735;50.136;11.062;2023-09-19T06:19:37;21.80;99.90
7388;DHT22;3735;50.136;11.062;2023-09-19T06:22:03;22.30;99.90
7388;DHT22;3735;50.136;11.062;2023-09-19T06:24:29;22.60;99.90
7388;DHT22;3735;50.136;11.062;2023-09-19T06:26:54;22.80;99.90
7388;DHT22;3735;50.136;11.062;2023-09-19T06:29:20;23.10;99.90
7388;DHT22;3735;50.136;11.062;2023-09-19T06:31:48;23.30;99.90
7388;DHT22;3735;50.136;11.062;2023-09-19T06:34:14;23.70;99.90
7388;DHT22;3735;50.136;11.062;2023-09-19T06:36:41;24.20;99.90
7388;DHT22;3735;50.136;11.062;2023-09-19T06:39:07;24.80;99.90
7388;DHT22;3735;50.136;11.062;2023-09-19T06:41:37;24.90;99.90
7388;DHT22;3735;50.136;11.062;2023-09-19T06:44:04;25.00;99.90
7388;DHT22;3735;50.136;11.062;2023-09-19T06:46:31;24.80;99.90
7388;DHT22;3735;50.136;11.062;2023-09-19T06:49:01;24.40;99.90
7388;DHT22;3735;50.136;11.062;2023-09-19T06:51:31;23.70;99.90
7388;DHT22;3735;50.136;11.062;2023-09-19T06:54:00;22.90;99.90
7388;DHT22;3735;50.136;11.062;2023-09-19T06:56:27;22.00;99.90
7388;DHT22;3735;50.136;11.062;2023-09-19T06:58:53;21.10;99.90
7388;DHT22;3735;50.136;11.062;2023-09-19T07:01:18;20.60;99.90
7388;DHT22;3735;50.136;11.062;2023-09-19T07:03:44;20.00;99.90
7388;DHT22;3735;50.136;11.062;2023-09-19T07:06:11;19.60;99.90
7388;DHT22;3735;50.136;11.062;2023-09-19T07:08:37;19.40;99.90
7388;DHT22;3735;50.136;11.062;2023-09-19T07:11:03;19.40;99.90
7388;DHT22;3735;50.136;11.062;2023-09-19T07:13:31;19.80;99.90
7388;DHT22;3735;50.136;11.062;2023-09-19T07:15:58;20.90;99.90
7388;DHT22;3735;50.136;11.062;2023-09-19T07:18:25;21.10;99.90
7388;DHT22;3735;50.136;11.062;2023-09-19T07:20:51;21.00;99.90
7388;DHT22;3735;50.136;11.062;2023-09-19T07:23:26;20.80;99.90
7388;DHT22;3735;50.136;11.062;2023-09-19T07:25:57;20.30;99.90
7388;DHT22;3735;50.136;11.062;2023-09-19T07:28:24;20.10;99.90
7388;DHT22;3735;50.136;11.062;2023-09-19T07:30:49;19.80;99.90
7388;DHT22;3735;50.136;11.062;2023-09-19T07:33:15;19.60;99.90
7388;DHT22;3735;50.136;11.062;2023-09-19T07:35:45;19.40;99.90
7388;DHT22;3735;50.136;11.062;2023-09-19T07:38:12;19.30;99.90
7388;DHT22;3735;50.136;11.062;2023-09-19T07:40:38;19.20;99.90
7388;DHT22;3735;50.136;11.062;2023-09-19T07:43:05;19.00;99.90
7388;DHT22;3735;50.136;11.062;2023-09-19T07:45:32;18.90;99.90
7388;DHT22;3735;50.136;11.062;2023-09-19T07:47:58;19.00;99.90
7388;DHT22;3735;50.136;11.062;2023-09-19T07:50:26;19.10;99.90
7388;DHT22;3735;50.136;11.062;2023-09-19T07:52:52;19.10;99.90
7388;DHT22;3735;50.136;11.062;2023-09-19T07:55:19;19.10;99.90
7388;DHT22;3735;50.136;11.062;2023-09-19T07:57:49;18.90;99.90
7388;DHT22;3735;50.136;11.062;2023-09-19T08:00:15;18.70;99.90
7388;DHT22;3735;50.136;11.062;2023-09-19T08:02:42;18.60;99.90
7388;DHT22;3735;50.136;11.062;2023-09-19T08:05:12;18.70;99.90
7388;DHT22;3735;50.136;11.062;2023-09-19T08:07:43;20.00;99.90
7388;DHT22;3735;50.136;11.062;2023-09-19T08:10:14;21.70;99.90
7388;DHT22;3735;50.136;11.062;2023-09-19T08:12:42;22.90;99.90
7388;DHT22;3735;50.136;11.062;2023-09-19T08:15:13;22.70;99.90
7388;DHT22;3735;50.136;11.062;2023-09-19T08:17:39;22.30;99.90
7388;DHT22;3735;50.136;11.062;2023-09-19T08:20:05;22.20;99.90
7388;DHT22;3735;50.136;11.062;2023-09-19T08:22:49;22.00;99.90
7388;DHT22;3735;50.136;11.062;2023-09-19T08:25:23;21.50;99.90
7388;DHT22;3735;50.136;11.062;2023-09-19T08:27:50;21.40;99.90
7388;DHT22;3735;50.136;11.062;2023-09-19T08:30:17;22.50;99.90
7388;DHT22;3735;50.136;11.062;2023-09-19T08:32:49;23.60;99.90
7388;DHT22;3735;50.136;11.062;2023-09-19T08:35:28;24.30;99.90
7388;DHT22;3735;50.136;11.062;2023-09-19T08:37:54;24.80;99.90
7388;DHT22;3735;50.136;11.062;2023-09-19T08:40:21;24.90;99.90
7388;DHT22;3735;50.136;11.062;2023-09-19T08:42:48;25.10;99.90
7388;DHT22;3735;50.136;11.062;2023-09-19T08:45:22;25.20;99.90
7388;DHT22;3735;50.136;11.062;2023-09-19T08:51:00;24.70;99.90
7388;DHT22;3735;50.136;11.062;2023-09-19T08:53:52;24.40;99.90
7388;DHT22;3735;50.136;11.062;2023-09-19T08:56:26;24.20;99.90
7388;DHT22;3735;50.136;11.062;2023-09-19T08:59:05;24.20;99.90
7388;DHT22;3735;50.136;11.062;2023-09-19T09:01:36;24.20;99.90
7388;DHT22;3735;50.136;11.062;2023-09-19T09:04:08;23.80;99.90
7388;DHT22;3735;50.136;11.062;2023-09-19T09:06:38;23.80;99.90
7388;DHT22;3735;50.136;11.062;2023-09-19T09:09:08;24.00;99.90
7388;DHT22;3735;50.136;11.062;2023-09-19T09:11:34;24.30;99.90
7388;DHT22;3735;50.136;11.062;2023-09-19T09:14:06;24.70;99.90
7388;DHT22;3735;50.136;11.062;2023-09-19T09:16:35;25.20;99.90
7388;DHT22;3735;50.136;11.062;2023-09-19T09:19:01;25.40;99.90
7388;DHT22;3735;50.136;11.062;2023-09-19T09:21:27;24.60;99.90
7388;DHT22;3735;50.136;11.062;2023-09-19T09:23:54;24.40;99.90
7388;DHT22;3735;50.136;11.062;2023-09-19T09:29:04;22.90;99.90
7388;DHT22;3735;50.136;11.062;2023-09-19T09:31:30;23.20;99.90
7388;DHT22;3735;50.136;11.062;2023-09-19T09:33:57;23.20;99.90
7388;DHT22;3735;50.136;11.062;2023-09-19T09:36:39;23.30;99.90
7388;DHT22;3735;50.136;11.062;2023-09-19T09:39:09;23.60;99.90
7388;DHT22;3735;50.136;11.062;2023-09-19T09:41:42;23.40;99.90
7388;DHT22;3735;50.136;11.062;2023-09-19T09:44:18;22.90;99.90
7388;DHT22;3735;50.136;11.062;2023-09-19T09:46:48;23.40;99.90
7388;DHT22;3735;50.136;11.062;2023-09-19T09:49:27;24.20;99.90
7388;DHT22;3735;50.136;11.062;2023-09-19T09:52:07;24.50;99.90
7388;DHT22;3735;50.136;11.062;2023-09-19T09:54:59;24.80;99.90
7388;DHT22;3735;50.136;11.062;2023-09-19T09:57:27;24.60;99.90
7388;DHT22;3735;50.136;11.062;2023-09-19T09:59:54;25.10;99.90
7388;DHT22;3735;50.136;11.062;2023-09-19T10:02:30;24.90;99.90
7388;DHT22;3735;50.136;11.062;2023-09-19T10:05:19;24.60;99.90
7388;DHT22;3735;50.136;11.062;2023-09-19T10:07:50;24.40;99.90
7388;DHT22;3735;50.136;11.062;2023-09-19T10:10:33;24.60;99.90
7388;DHT22;3735;50.136;11.062;2023-09-19T10:13:10;25.80;99.90
7388;DHT22;3735;50.136;11.062;2023-09-19T10:15:43;26.20;99.90
7388;DHT22;3735;50.136;11.062;2023-09-19T10:18:20;26.10;99.90
7388;DHT22;3735;50.136;11.062;2023-09-19T10:20:56;25.40;99.90
7388;DHT22;3735;50.136;11.062;2023-09-19T10:23:22;25.00;99.90
7388;DHT22;3735;50.136;11.062;2023-09-19T10:25:53;25.40;99.90
7388;DHT22;3735;50.136;11.062;2023-09-19T10:28:20;25.40;99.90
7388;DHT22;3735;50.136;11.062;2023-09-19T10:30:52;25.60;99.90
7388;DHT22;3735;50.136;11.062;2023-09-19T10:33:23;26.30;99.90
7388;DHT22;3735;50.136;11.062;2023-09-19T10:35:56;26.40;99.90
7388;DHT22;3735;50.136;11.062;2023-09-19T10:38:26;26.60;99.90
7388;DHT22;3735;50.136;11.062;2023-09-19T10:40:55;26.70;99.90
7388;DHT22;3735;50.136;11.062;2023-09-19T10:43:29;26.90;99.90
7388;DHT22;3735;50.136;11.062;2023-09-19T10:46:01;25.80;99.90
7388;DHT22;3735;50.136;11.062;2023-09-19T10:48:31;24.60;99.90
7388;DHT22;3735;50.136;11.062;2023-09-19T10:51:12;24.60;99.90
7388;DHT22;3735;50.136;11.062;2023-09-19T10:56:37;24.20;99.90
7388;DHT22;3735;50.136;11.062;2023-09-19T10:59:12;24.10;99.90
7388;DHT22;3735;50.136;11.062;2023-09-19T11:04:30;25.30;99.90
7388;DHT22;3735;50.136;11.062;2023-09-19T11:09:55;25.70;99.90
7388;DHT22;3735;50.136;11.062;2023-09-19T11:26:48;26.70;99.90
7388;DHT22;3735;50.136;11.062;2023-09-19T11:29:30;26.50;99.90
7388;DHT22;3735;50.136;11.062;2023-09-19T11:31:59;25.90;99.90
7388;DHT22;3735;50.136;11.062;2023-09-19T11:39:39;25.40;99.90
7388;DHT22;3735;50.136;11.062;2023-09-19T11:42:47;25.50;99.90
7388;DHT22;3735;50.136;11.062;2023-09-19T11:48:18;26.20;99.90
7388;DHT22;3735;50.136;11.062;2023-09-19T11:50:45;26.40;99.90
7388;DHT22;3735;50.136;11.062;2023-09-19T11:53:13;26.80;99.90
7388;DHT22;3735;50.136;11.062;2023-09-19T11:55:42;26.70;99.90
7388;DHT22;3735;50.136;11.062;2023-09-19T11:58:09;26.80;99.90
7388;DHT22;3735;50.136;11.062;2023-09-19T12:00:38;26.80;99.90
7388;DHT22;3735;50.136;11.062;2023-09-19T12:03:10;26.70;99.90
7388;DHT22;3735;50.136;11.062;2023-09-19T12:05:37;27.00;99.90
7388;DHT22;3735;50.136;11.062;2023-09-19T12:08:04;26.60;99.90
7388;DHT22;3735;50.136;11.062;2023-09-19T12:10:55;26.40;99.90
7388;DHT22;3735;50.136;11.062;2023-09-19T12:13:23;26.50;99.90
7388;DHT22;3735;50.136;11.062;2023-09-19T12:15:49;27.30;99.90
7388;DHT22;3735;50.136;11.062;2023-09-19T12:18:28;27.20;99.90
7388;DHT22;3735;50.136;11.062;2023-09-19T12:20:55;26.70;99.90
7388;DHT22;3735;50.136;11.062;2023-09-19T12:23:23;26.50;99.90
7388;DHT22;3735;50.136;11.062;2023-09-19T12:25:49;26.30;99.90
7388;DHT22;3735;50.136;11.062;2023-09-19T12:28:19;25.80;99.90
7388;DHT22;3735;50.136;11.062;2023-09-19T12:30:48;25.80;99.90
7388;DHT22;3735;50.136;11.062;2023-09-19T12:33:18;25.90;99.90
7388;DHT22;3735;50.136;11.062;2023-09-19T12:35:51;26.40;99.90
7388;DHT22;3735;50.136;11.062;2023-09-19T12:38:26;26.60;99.90
7388;DHT22;3735;50.136;11.062;2023-09-19T12:40:55;26.80;99.90
7388;DHT22;3735;50.136;11.062;2023-09-19T12:43:24;27.00;99.90
7388;DHT22;3735;50.136;11.062;2023-09-19T12:45:50;27.20;99.90
7388;DHT22;3735;50.136;11.062;2023-09-19T12:48:25;27.00;99.90
7388;DHT22;3735;50.136;11.062;2023-09-19T12:51:00;27.60;99.90
7388;DHT22;3735;50.136;11.062;2023-09-19T12:53:29;27.80;99.90
7388;DHT22;3735;50.136;11.062;2023-09-19T12:56:01;27.80;99.90
7388;DHT22;3735;50.136;11.062;2023-09-19T12:58:27;27.40;99.90
7388;DHT22;3735;50.136;11.062;2023-09-19T13:00:56;27.30;99.90
7388;DHT22;3735;50.136;11.062;2023-09-19T13:05:57;27.90;99.90
7388;DHT22;3735;50.136;11.062;2023-09-19T13:09:07;28.00;99.90
7388;DHT22;3735;50.136;11.062;2023-09-19T13:11:38;28.20;99.90
7388;DHT22;3735;50.136;11.062;2023-09-19T13:25:08;27.50;99.90
7388;DHT22;3735;50.136;11.062;2023-09-19T13:27:56;28.10;99.90
7388;DHT22;3735;50.136;11.062;2023-09-19T13:30:25;28.00;99.90
7388;DHT22;3735;50.136;11.062;2023-09-19T13:33:04;27.80;99.90
7388;DHT22;3735;50.136;11.062;2023-09-19T13:35:35;27.30;99.90
7388;DHT22;3735;50.136;11.062;2023-09-19T13:38:04;26.50;99.90
7388;DHT22;3735;50.136;11.062;2023-09-19T13:40:30;26.30;99.90
7388;DHT22;3735;50.136;11.062;2023-09-19T13:43:00;26.50;99.90
7388;DHT22;3735;50.136;11.062;2023-09-19T13:45:26;26.40;99.90
7388;DHT22;3735;50.136;11.062;2023-09-19T13:47:52;26.60;99.90
7388;DHT22;3735;50.136;11.062;2023-09-19T13:50:19;26.50;99.90
7388;DHT22;3735;50.136;11.062;2023-09-19T13:52:49;26.70;99.90
7388;DHT22;3735;50.136;11.062;2023-09-19T13:55:17;27.40;99.90
7388;DHT22;3735;50.136;11.062;2023-09-19T13:57:49;27.30;99.90
7388;DHT22;3735;50.136;11.062;2023-09-19T14:00:21;27.10;99.90
7388;DHT22;3735;50.136;11.062;2023-09-19T14:02:48;26.30;99.90
7388;DHT22;3735;50.136;11.062;2023-09-19T14:05:15;25.50;99.90
7388;DHT22;3735;50.136;11.062;2023-09-19T14:07:42;26.10;99.90
7388;DHT22;3735;50.136;11.062;2023-09-19T14:10:10;26.30;99.90
7388;DHT22;3735;50.136;11.062;2023-09-19T14:12:38;26.70;99.90
7388;DHT22;3735;50.136;11.062;2023-09-19T14:15:08;27.10;99.90
7388;DHT22;3735;50.136;11.062;2023-09-19T14:17:34;27.70;99.90
7388;DHT22;3735;50.136;11.062;2023-09-19T14:20:00;27.70;99.90
7388;DHT22;3735;50.136;11.062;2023-09-19T14:22:25;27.10;99.90
7388;DHT22;3735;50.136;11.062;2023-09-19T14:24:51;26.40;99.90
7388;DHT22;3735;50.136;11.062;2023-09-19T14:27:18;25.70;99.90
7388;DHT22;3735;50.136;11.062;2023-09-19T14:29:44;25.70;99.90
7388;DHT22;3735;50.136;11.062;2023-09-19T14:32:10;25.70;99.90
7388;DHT22;3735;50.136;11.062;2023-09-19T14:34:36;25.70;99.90
7388;DHT22;3735;50.136;11.062;2023-09-19T14:37:07;25.80;99.90
7388;DHT22;3735;50.136;11.062;2023-09-19T14:39:33;25.70;99.90
7388;DHT22;3735;50.136;11.062;2023-09-19T14:41:59;25.60;99.90
7388;DHT22;3735;50.136;11.062;2023-09-19T14:44:25;25.60;99.90
7388;DHT22;3735;50.136;11.062;2023-09-19T14:46:51;26.10;99.90
7388;DHT22;3735;50.136;11.062;2023-09-19T14:49:17;25.70;99.90
7388;DHT22;3735;50.136;11.062;2023-09-19T14:51:42;25.50;99.90
7388;DHT22;3735;50.136;11.062;2023-09-19T14:54:09;24.70;99.90
7388;DHT22;3735;50.136;11.062;2023-09-19T14:56:35;24.60;99.90
7388;DHT22;3735;50.136;11.062;2023-09-19T14:59:01;24.60;99.90
7388;DHT22;3735;50.136;11.062;2023-09-19T15:01:28;24.40;99.90
7388;DHT22;3735;50.136;11.062;2023-09-19T15:03:53;24.30;99.90
7388;DHT22;3735;50.136;11.062;2023-09-19T15:06:20;24.20;99.90
7388;DHT22;3735;50.136;11.062;2023-09-19T15:08:47;24.30;99.90
7388;DHT22;3735;50.136;11.062;2023-09-19T15:11:14;24.50;99.90
7388;DHT22;3735;50.136;11.062;2023-09-19T15:13:43;24.50;99.90
7388;DHT22;3735;50.136;11.062;2023-09-19T15:16:11;24.20;99.90
7388;DHT22;3735;50.136;11.062;2023-09-19T15:18:42;23.80;99.90
7388;DHT22;3735;50.136;11.062;2023-09-19T15:21:11;23.40;99.90
7388;DHT22;3735;50.136;11.062;2023-09-19T15:23:40;23.50;99.90
7388;DHT22;3735;50.136;11.062;2023-09-19T15:26:08;23.80;99.90
7388;DHT22;3735;50.136;11.062;2023-09-19T15:28:37;24.10;99.90
7388;DHT22;3735;50.136;11.062;2023-09-19T15:31:10;24.60;99.90
7388;DHT22;3735;50.136;11.062;2023-09-19T15:33:37;24.80;99.90
7388;DHT22;3735;50.136;11.062;2023-09-19T15:36:13;24.20;99.90
7388;DHT22;3735;50.136;11.062;2023-09-19T15:44:03;23.70;99.90
7388;DHT22;3735;50.136;11.062;2023-09-19T15:46:31;23.60;99.90
7388;DHT22;3735;50.136;11.062;2023-09-19T15:49:01;23.40;99.90
7388;DHT22;3735;50.136;11.062;2023-09-19T15:51:28;23.40;99.90
7388;DHT22;3735;50.136;11.062;2023-09-19T15:53:55;23.30;99.90
7388;DHT22;3735;50.136;11.062;2023-09-19T15:56:22;23.10;99.90
7388;DHT22;3735;50.136;11.062;2023-09-19T15:58:50;22.70;99.90
7388;DHT22;3735;50.136;11.062;2023-09-19T16:01:17;22.40;99.90
7388;DHT22;3735;50.136;11.062;2023-09-19T16:03:46;21.90;99.90
7388;DHT22;3735;50.136;11.062;2023-09-19T16:06:15;21.60;99.90
7388;DHT22;3735;50.136;11.062;2023-09-19T16:08:47;21.40;99.90
7388;DHT22;3735;50.136;11.062;2023-09-19T16:11:15;21.30;99.90
7388;DHT22;3735;50.136;11.062;2023-09-19T16:13:42;21.80;99.90
7388;DHT22;3735;50.136;11.062;2023-09-19T16:16:09;22.00;99.90
7388;DHT22;3735;50.136;11.062;2023-09-19T16:18:38;22.20;99.90
7388;DHT22;3735;50.136;11.062;2023-09-19T16:21:05;22.30;99.90
7388;DHT22;3735;50.136;11.062;2023-09-19T16:23:36;22.30;99.90
7388;DHT22;3735;50.136;11.062;2023-09-19T16:26:08;22.30;99.90
7388;DHT22;3735;50.136;11.062;2023-09-19T16:28:37;22.00;99.90
7388;DHT22;3735;50.136;11.062;2023-09-19T16:31:05;21.80;99.90
7388;DHT22;3735;50.136;11.062;2023-09-19T16:33:33;21.50;99.90
7388;DHT22;3735;50.136;11.062;2023-09-19T16:36:02;21.20;99.90
7388;DHT22;3735;50.136;11.062;2023-09-19T16:38:32;21.00;99.90
7388;DHT22;3735;50.136;11.062;2023-09-19T16:40:58;20.90;99.90
7388;DHT22;3735;50.136;11.062;2023-09-19T16:43:25;20.90;99.90
7388;DHT22;3735;50.136;11.062;2023-09-19T16:45:55;20.70;99.90
7388;DHT22;3735;50.136;11.062;2023-09-19T16:48:26;20.30;99.90
7388;DHT22;3735;50.136;11.062;2023-09-19T16:50:53;19.90;99.90
7388;DHT22;3735;50.136;11.062;2023-09-19T16:53:20;19.70;99.90
7388;DHT22;3735;50.136;11.062;2023-09-19T16:55:48;19.40;99.90
7388;DHT22;3735;50.136;11.062;2023-09-19T16:58:15;19.10;99.90
7388;DHT22;3735;50.136;11.062;2023-09-19T17:00:42;19.00;99.90
7388;DHT22;3735;50.136;11.062;2023-09-19T17:03:14;18.80;99.90
7388;DHT22;3735;50.136;11.062;2023-09-19T17:05:40;18.70;99.90